createdAt,value
2022-09-01T00:01:50.706Z,3.75
2022-09-01T00:04:58.292Z,3.97
2022-09-01T00:07:59.619Z,4.00
2022-09-01T00:11:00.926Z,4.22
2022-09-01T00:14:02.684Z,4.32
2022-09-01T00:17:05.833Z,4.47
2022-09-01T00:20:07.529Z,4.22
2022-09-01T00:23:08.862Z,3.80
2022-09-01T00:26:10.236Z,4.28
2022-09-01T00:29:12.386Z,4.68
2022-09-01T00:32:13.732Z,4.00
2022-09-01T00:35:16.712Z,3.70
2022-09-01T00:38:18.200Z,3.85
2022-09-01T00:41:23.367Z,4.20
2022-09-01T00:44:27.227Z,4.47
2022-09-01T00:47:31.218Z,4.45
2022-09-01T00:50:32.601Z,4.25
2022-09-01T00:53:34.264Z,4.53
2022-09-01T00:56:37.561Z,3.90
2022-09-01T00:59:41.904Z,5.00
2022-09-01T01:02:44.929Z,4.63
2022-09-01T01:05:55.270Z,5.05
2022-09-01T01:08:57.807Z,4.97
2022-09-01T01:12:00.142Z,3.95
2022-09-01T01:15:02.665Z,4.60
2022-09-01T01:18:04.022Z,4.68
2022-09-01T01:21:25.386Z,4.47
2022-09-01T01:24:27.778Z,5.25
2022-09-01T01:27:42.834Z,4.13
2022-09-01T01:30:48.802Z,4.30
2022-09-01T01:33:52.031Z,3.85
2022-09-01T01:36:53.914Z,5.47
2022-09-01T01:39:55.238Z,4.97
2022-09-01T01:42:57.223Z,4.35
2022-09-01T01:46:03.047Z,4.85
2022-09-01T01:49:04.471Z,4.50
2022-09-01T01:52:06.216Z,4.50
2022-09-01T01:55:12.577Z,4.82
2022-09-01T01:58:15.287Z,5.32
2022-09-01T02:01:17.161Z,4.72
2022-09-01T02:04:19.849Z,5.25
2022-09-01T02:07:21.183Z,5.60
2022-09-01T02:10:23.960Z,5.20
2022-09-01T02:13:28.501Z,6.13
2022-09-01T02:16:32.596Z,4.55
2022-09-01T02:19:37.925Z,4.63
2022-09-01T02:22:39.426Z,5.70
2022-09-01T02:26:05.097Z,4.93
2022-09-01T02:29:09.086Z,3.88
2022-09-01T02:32:11.549Z,4.95
2022-09-01T02:35:13.387Z,5.38
2022-09-01T02:38:14.697Z,4.93
2022-09-01T02:41:19.945Z,6.88
2022-09-01T02:44:22.015Z,5.25
2022-09-01T02:47:23.576Z,5.22
2022-09-01T02:50:26.877Z,7.90
2022-09-01T02:53:28.853Z,5.60
2022-09-01T02:56:30.183Z,5.00
2022-09-01T02:59:32.021Z,8.77
2022-09-01T03:02:35.874Z,7.28
2022-09-01T03:05:39.100Z,4.43
2022-09-01T03:08:40.882Z,5.50
2022-09-01T03:11:43.261Z,5.28
2022-09-01T03:14:44.554Z,5.05
2022-09-01T03:17:45.860Z,5.82
2022-09-01T03:20:47.254Z,6.13
2022-09-01T03:23:49.414Z,5.57
2022-09-01T03:26:51.378Z,4.53
2022-09-01T03:29:52.667Z,5.38
2022-09-01T03:32:54.429Z,5.57
2022-09-01T03:35:56.090Z,6.78
2022-09-01T03:38:57.445Z,6.05
2022-09-01T03:42:00.144Z,5.43
2022-09-01T03:45:07.382Z,6.45
2022-09-01T03:48:09.184Z,5.97
2022-09-01T03:51:11.890Z,5.50
2022-09-01T03:54:13.440Z,5.25
2022-09-01T03:57:14.755Z,6.30
2022-09-01T04:00:22.956Z,6.20
2022-09-01T04:03:31.775Z,5.70
2022-09-01T04:06:33.150Z,5.07
2022-09-01T04:09:35.251Z,4.72
2022-09-01T04:12:37.286Z,5.55
2022-09-01T04:15:38.706Z,6.72
2022-09-01T04:18:41.318Z,6.82
2022-09-01T04:21:46.800Z,5.35
2022-09-01T04:24:48.097Z,7.47
2022-09-01T04:27:50.370Z,5.00
2022-09-01T04:30:53.602Z,5.63
2022-09-01T04:33:55.037Z,4.93
2022-09-01T04:36:57.983Z,4.95
2022-09-01T04:39:59.285Z,6.13
2022-09-01T04:43:00.602Z,5.57
2022-09-01T04:46:03.271Z,4.90
2022-09-01T04:49:13.318Z,4.35
2022-09-01T04:52:14.822Z,5.70
2022-09-01T04:55:17.647Z,4.75
2022-09-01T04:58:19.298Z,5.68
2022-09-01T05:01:25.291Z,4.60
2022-09-01T05:04:28.545Z,6.10
2022-09-01T05:07:30.022Z,6.15
2022-09-01T05:10:37.847Z,5.03
2022-09-01T05:13:39.596Z,6.05
2022-09-01T05:16:44.997Z,4.22
2022-09-01T05:19:47.687Z,4.60
2022-09-01T05:22:49.244Z,4.18
2022-09-01T05:25:53.667Z,4.47
2022-09-01T05:28:57.087Z,4.50
2022-09-01T05:31:58.811Z,5.60
2022-09-01T05:35:00.959Z,6.93
2022-09-01T05:38:02.474Z,5.10
2022-09-01T05:41:08.483Z,4.30
2022-09-01T05:44:11.144Z,5.47
2022-09-01T05:47:14.751Z,3.90
2022-09-01T05:50:22.678Z,4.20
2022-09-01T05:53:25.245Z,3.92
2022-09-01T05:59:31.370Z,3.85
2022-09-01T06:02:34.024Z,5.90
2022-09-01T06:05:36.655Z,5.15
2022-09-01T06:08:39.158Z,4.75
2022-09-01T06:11:42.243Z,5.80
2022-09-01T06:14:44.491Z,4.03
2022-09-01T06:17:45.954Z,4.28
2022-09-01T06:20:47.708Z,5.13
2022-09-01T06:23:51.035Z,7.13
2022-09-01T06:26:52.348Z,4.88
2022-09-01T06:29:54.740Z,4.32
2022-09-01T06:32:57.017Z,3.60
2022-09-01T06:36:00.958Z,4.53
2022-09-01T06:39:03.599Z,4.75
2022-09-01T06:42:06.377Z,4.15
2022-09-01T06:45:10.259Z,4.18
2022-09-01T06:48:16.387Z,3.95
2022-09-01T06:51:21.218Z,4.53
2022-09-01T06:54:23.276Z,3.53
2022-09-01T07:00:49.618Z,4.50
2022-09-01T07:03:51.943Z,4.10
2022-09-01T07:07:53.375Z,4.10
2022-09-01T07:13:38.789Z,4.45
2022-09-01T07:16:52.097Z,4.50
2022-09-01T07:19:55.960Z,3.13
2022-09-01T07:23:05.810Z,4.07
2022-09-01T07:26:07.973Z,4.78
2022-09-01T07:29:09.406Z,4.18
2022-09-01T07:35:36.583Z,3.85
2022-09-01T07:45:27.983Z,3.47
2022-09-01T07:49:02.733Z,3.95
2022-09-01T07:51:51.966Z,3.22
2022-09-01T07:54:53.317Z,3.47
2022-09-01T07:57:54.662Z,4.25
2022-09-01T08:00:56.171Z,3.28
2022-09-01T08:03:58.651Z,3.83
2022-09-01T08:07:01.105Z,3.92
2022-09-01T08:10:03.886Z,4.35
2022-09-01T08:13:05.211Z,3.70
2022-09-01T08:16:08.574Z,4.13
2022-09-01T08:19:16.612Z,3.28
2022-09-01T08:22:21.848Z,3.28
2022-09-01T08:25:25.048Z,4.03
2022-09-01T08:28:27.055Z,3.22
2022-09-01T08:31:30.516Z,2.80
2022-09-01T08:37:34.021Z,3.42
2022-09-01T08:40:36.076Z,4.22
2022-09-01T08:43:49.510Z,3.20
2022-09-01T08:46:55.275Z,3.42
2022-09-01T08:49:57.576Z,3.20
2022-09-01T08:53:09.756Z,3.38
2022-09-01T08:56:12.024Z,3.95
2022-09-01T08:59:20.260Z,3.55
2022-09-01T09:02:44.958Z,4.13
2022-09-01T09:05:46.383Z,2.90
2022-09-01T09:08:59.285Z,3.80
2022-09-01T09:12:27.063Z,3.03
2022-09-01T09:15:31.444Z,3.40
2022-09-01T09:18:40.616Z,3.53
2022-09-01T09:21:43.435Z,3.88
2022-09-01T09:24:52.685Z,2.97
2022-09-01T09:28:01.416Z,3.30
2022-09-01T09:31:21.479Z,3.28
2022-09-01T09:34:32.589Z,3.40
2022-09-01T09:37:33.942Z,3.20
2022-09-01T09:40:53.256Z,3.60
2022-09-01T09:44:00.066Z,3.15
2022-09-01T09:47:02.000Z,3.30
2022-09-01T09:50:12.140Z,3.17
2022-09-01T09:53:16.338Z,4.05
2022-09-01T09:56:19.699Z,4.60
2022-09-01T09:59:45.930Z,3.35
2022-09-01T10:02:45.924Z,3.22
2022-09-01T10:05:51.418Z,3.25
2022-09-01T10:08:52.759Z,5.10
2022-09-01T10:11:57.891Z,3.22
2022-09-01T10:15:11.675Z,4.28
2022-09-01T10:18:21.899Z,2.65
2022-09-01T10:21:40.622Z,2.90
2022-09-01T10:24:45.863Z,2.83
2022-09-01T10:27:54.870Z,3.13
2022-09-01T10:30:58.961Z,2.80
2022-09-01T10:34:05.556Z,2.88
2022-09-01T10:37:11.191Z,4.07
2022-09-01T10:40:13.108Z,3.30
2022-09-01T10:43:27.253Z,3.30
2022-09-01T10:46:38.742Z,4.43
2022-09-01T10:49:47.920Z,3.42
2022-09-01T10:52:50.557Z,3.17
2022-09-01T10:56:20.131Z,3.90
2022-09-01T10:59:35.760Z,2.85
2022-09-01T11:02:46.559Z,3.40
2022-09-01T11:06:11.102Z,2.92
2022-09-01T11:09:25.311Z,2.70
2022-09-01T11:12:31.981Z,2.72
2022-09-01T11:15:40.342Z,2.97
2022-09-01T11:18:42.627Z,2.95
2022-09-01T11:21:44.585Z,2.97
2022-09-01T11:24:54.477Z,2.90
2022-09-01T11:28:07.319Z,2.80
2022-09-01T11:31:08.820Z,3.10
2022-09-01T11:34:19.057Z,3.53
2022-09-01T11:37:21.585Z,4.43
2022-09-01T11:40:32.652Z,3.25
2022-09-01T11:43:35.845Z,3.33
2022-09-01T11:46:37.462Z,3.25
2022-09-01T11:49:46.594Z,4.70
2022-09-01T11:52:55.178Z,3.45
2022-09-01T11:56:10.945Z,3.33
2022-09-01T11:59:12.316Z,3.10
2022-09-01T12:02:22.887Z,4.07
2022-09-01T12:05:26.993Z,3.75
2022-09-01T12:08:36.616Z,3.42
2022-09-01T12:11:41.746Z,3.33
2022-09-01T12:15:04.439Z,3.42
2022-09-01T12:18:22.092Z,3.95
2022-09-01T12:21:25.908Z,3.80
2022-09-01T12:24:27.677Z,3.35
2022-09-01T12:27:29.131Z,4.13
2022-09-01T12:30:30.941Z,3.28
2022-09-01T12:33:32.823Z,3.35
2022-09-01T12:36:35.210Z,2.92
2022-09-01T12:39:45.564Z,2.90
2022-09-01T12:42:51.164Z,3.00
2022-09-01T12:45:53.063Z,3.40
2022-09-01T12:48:54.462Z,4.10
2022-09-01T12:52:34.423Z,3.67
2022-09-01T12:55:51.781Z,2.70
2022-09-01T12:59:03.579Z,3.22
2022-09-01T13:02:23.922Z,2.45
2022-09-01T13:05:30.605Z,2.83
2022-09-01T13:08:34.708Z,3.28
2022-09-01T13:14:57.886Z,2.65
2022-09-01T13:17:59.357Z,2.17
2022-09-01T13:21:00.815Z,2.58
2022-09-01T13:24:04.264Z,2.80
2022-09-01T13:27:21.812Z,2.72
2022-09-01T13:30:28.145Z,2.85
2022-09-01T13:33:29.914Z,3.58
2022-09-01T13:36:51.237Z,2.60
2022-09-01T13:39:52.716Z,3.85
2022-09-01T13:42:54.213Z,3.40
2022-09-01T13:45:59.083Z,3.33
2022-09-01T13:49:03.614Z,2.78
2022-09-01T13:52:05.963Z,2.78
2022-09-01T13:55:08.086Z,2.65
2022-09-01T13:58:09.487Z,3.10
2022-09-01T14:01:11.062Z,3.20
2022-09-01T14:04:12.775Z,3.95
2022-09-01T14:07:16.002Z,3.80
2022-09-01T14:10:18.079Z,3.20
2022-09-01T14:13:21.044Z,4.63
2022-09-01T14:16:22.457Z,2.88
2022-09-01T14:19:24.522Z,3.13
2022-09-01T14:22:25.885Z,3.38
2022-09-01T14:25:27.249Z,2.90
2022-09-01T14:28:28.654Z,2.83
2022-09-01T14:31:30.236Z,4.20
2022-09-01T14:34:31.571Z,3.55
2022-09-01T14:37:32.861Z,3.90
2022-09-01T14:40:37.022Z,2.85
2022-09-01T14:43:42.773Z,3.00
2022-09-01T14:46:44.137Z,3.55
2022-09-01T14:49:45.478Z,4.32
2022-09-01T14:52:47.159Z,3.15
2022-09-01T14:55:51.495Z,2.63
2022-09-01T14:59:00.465Z,3.08
2022-09-01T15:02:01.823Z,2.63
2022-09-01T15:05:03.932Z,2.85
2022-09-01T15:08:05.436Z,3.10
2022-09-01T15:11:11.113Z,4.20
2022-09-01T15:14:12.608Z,2.60
2022-09-01T15:17:14.005Z,2.63
2022-09-01T15:20:33.865Z,2.90
2022-09-01T15:23:35.203Z,3.00
2022-09-01T15:26:38.143Z,3.28
2022-09-01T15:29:45.883Z,3.00
2022-09-01T15:32:48.900Z,2.63
2022-09-01T15:35:50.264Z,2.35
2022-09-01T15:38:52.786Z,4.82
2022-09-01T15:41:54.057Z,2.55
2022-09-01T15:44:55.361Z,2.40
2022-09-01T15:47:56.825Z,2.80
2022-09-01T15:51:26.483Z,3.45
2022-09-01T15:54:30.564Z,2.90
2022-09-01T15:57:32.166Z,3.17
2022-09-01T16:00:34.028Z,3.10
2022-09-01T16:03:35.422Z,3.15
2022-09-01T16:06:37.043Z,4.90
2022-09-01T16:09:38.513Z,2.63
2022-09-01T16:12:43.326Z,2.70
2022-09-01T16:15:47.123Z,3.30
2022-09-01T16:18:54.877Z,2.88
2022-09-01T16:22:31.825Z,3.47
2022-09-01T16:25:33.366Z,3.10
2022-09-01T16:28:36.997Z,2.75
2022-09-01T16:31:38.471Z,3.75
2022-09-01T16:34:49.616Z,2.70
2022-09-01T16:38:09.951Z,3.80
2022-09-01T16:41:28.129Z,5.00
2022-09-01T16:44:32.434Z,3.33
2022-09-01T16:47:36.620Z,2.33
2022-09-01T16:50:56.639Z,3.22
2022-09-01T16:53:58.649Z,2.67
2022-09-01T16:57:18.687Z,2.90
2022-09-01T17:00:20.951Z,2.83
2022-09-01T17:03:34.288Z,4.03
2022-09-01T17:06:58.690Z,3.08
2022-09-01T17:10:06.746Z,3.13
2022-09-01T17:13:28.282Z,2.80
2022-09-01T17:16:36.984Z,2.85
2022-09-01T17:19:40.778Z,2.38
2022-09-01T17:25:55.305Z,3.67
2022-09-01T17:28:56.659Z,2.65
2022-09-01T17:32:27.045Z,2.83
2022-09-01T17:35:32.118Z,3.13
2022-09-01T17:38:36.516Z,5.80
2022-09-01T17:41:47.887Z,3.03
2022-09-01T17:44:55.374Z,3.22
2022-09-01T17:48:01.772Z,5.20
2022-09-01T17:51:12.237Z,2.92
2022-09-01T17:54:16.815Z,2.97
2022-09-01T17:57:23.997Z,3.22
2022-09-01T18:00:25.466Z,4.60
2022-09-01T18:03:26.815Z,3.72
2022-09-01T18:06:57.531Z,10.43
2022-09-01T18:10:00.780Z,4.25
2022-09-01T18:13:03.894Z,4.07
2022-09-01T18:16:19.827Z,4.32
2022-09-01T18:19:22.839Z,3.22
2022-09-01T18:22:25.740Z,2.90
2022-09-01T18:25:35.475Z,4.75
2022-09-01T18:28:36.849Z,3.50
2022-09-01T18:31:51.060Z,3.33
2022-09-01T18:35:11.790Z,3.13
2022-09-01T18:38:25.393Z,3.28
2022-09-01T18:41:45.406Z,3.20
2022-09-01T18:45:05.743Z,3.47
2022-09-01T18:48:10.117Z,3.33
2022-09-01T18:51:17.464Z,3.47
2022-09-01T18:54:22.431Z,3.83
2022-09-01T18:57:28.488Z,3.20
2022-09-01T19:00:41.264Z,4.22
2022-09-01T19:03:50.341Z,3.35
2022-09-01T19:07:11.240Z,3.20
2022-09-01T19:10:12.913Z,3.08
2022-09-01T19:13:38.228Z,3.33
2022-09-01T19:16:42.627Z,3.53
2022-09-01T19:19:47.856Z,3.80
2022-09-01T19:23:02.480Z,3.60
2022-09-01T19:26:05.401Z,3.45
2022-09-01T19:29:09.973Z,4.10
2022-09-01T19:32:18.104Z,3.85
2022-09-01T19:35:19.487Z,4.00
2022-09-01T19:38:27.310Z,3.25
2022-09-01T19:41:33.002Z,5.15
2022-09-01T19:44:44.675Z,3.88
2022-09-01T19:48:07.916Z,4.15
2022-09-01T19:51:14.185Z,4.03
2022-09-01T19:54:28.920Z,3.72
2022-09-01T19:57:44.004Z,3.22
2022-09-01T20:00:51.349Z,3.22
2022-09-01T20:03:57.452Z,3.85
2022-09-01T20:07:00.329Z,3.45
2022-09-01T20:10:01.697Z,3.85
2022-09-01T20:13:16.329Z,3.92
2022-09-01T20:16:30.792Z,3.47
2022-09-01T20:19:47.524Z,3.28
2022-09-01T20:23:10.486Z,4.32
2022-09-01T20:26:25.371Z,3.45
2022-09-01T20:29:34.920Z,3.60
2022-09-01T20:32:54.417Z,3.88
2022-09-01T20:36:02.312Z,3.70
2022-09-01T20:39:40.901Z,4.05
2022-09-01T20:42:54.095Z,3.95
2022-09-01T20:45:55.473Z,4.18
2022-09-01T20:48:58.385Z,4.05
2022-09-01T20:52:07.127Z,3.67
2022-09-01T20:55:32.611Z,3.42
2022-09-01T20:58:36.609Z,4.75
2022-09-01T21:01:48.568Z,4.80
2022-09-01T21:05:00.498Z,3.83
2022-09-01T21:08:15.801Z,3.50
2022-09-01T21:11:39.829Z,4.93
2022-09-01T21:14:41.119Z,3.80
2022-09-01T21:17:45.362Z,4.00
2022-09-01T21:23:47.887Z,4.53
2022-09-01T21:26:49.253Z,4.80
2022-09-01T21:30:02.770Z,3.90
2022-09-01T21:33:04.940Z,3.92
2022-09-01T21:36:06.493Z,3.65
2022-09-01T21:39:07.835Z,5.35
2022-09-01T21:42:10.410Z,4.30
2022-09-01T21:45:13.091Z,3.88
2022-09-01T21:48:14.642Z,4.20
2022-09-01T21:51:15.984Z,5.70
2022-09-01T21:54:18.160Z,5.03
2022-09-01T21:57:21.313Z,4.35
2022-09-01T22:00:24.201Z,4.30
2022-09-01T22:03:25.495Z,4.35
2022-09-01T22:06:27.242Z,4.90
2022-09-01T22:09:28.558Z,4.30
2022-09-01T22:12:30.096Z,4.07
2022-09-01T22:15:31.754Z,4.70
2022-09-01T22:18:33.221Z,5.80
2022-09-01T22:21:35.611Z,5.53
2022-09-01T22:24:36.996Z,4.22
2022-09-01T22:27:38.767Z,5.05
2022-09-01T22:30:47.072Z,3.88
2022-09-01T22:33:48.684Z,4.15
2022-09-01T22:36:50.034Z,4.13
2022-09-01T22:39:51.705Z,4.72
2022-09-01T22:42:53.014Z,5.07
2022-09-01T22:45:55.333Z,5.03
2022-09-01T22:48:57.334Z,4.93
2022-09-01T22:51:58.628Z,5.28
2022-09-01T22:54:59.928Z,4.43
2022-09-01T22:58:01.232Z,4.70
2022-09-01T23:01:02.858Z,4.57
2022-09-01T23:04:05.160Z,5.05
2022-09-01T23:07:07.075Z,5.35
2022-09-01T23:10:09.076Z,5.25
2022-09-01T23:13:10.390Z,5.95
2022-09-01T23:16:13.745Z,7.57
2022-09-01T23:19:15.062Z,5.18
2022-09-01T23:22:16.607Z,5.13
2022-09-01T23:25:18.007Z,5.78
2022-09-01T23:28:19.404Z,5.57
2022-09-01T23:31:22.672Z,4.80
2022-09-01T23:34:24.025Z,5.38
2022-09-01T23:37:25.971Z,6.45
2022-09-01T23:40:27.313Z,4.72
2022-09-01T23:43:28.754Z,5.15
2022-09-01T23:46:32.713Z,4.10
2022-09-01T23:49:34.083Z,5.38
2022-09-01T23:52:35.378Z,4.72
2022-09-01T23:55:43.350Z,5.75
2022-09-01T23:58:44.905Z,4.75
